createdAt,value
2023-03-12T00:01:30.716Z,87.00
2023-03-12T00:03:59.751Z,87.40
2023-03-12T00:06:28.842Z,87.50
2023-03-12T00:09:02.128Z,87.90
2023-03-12T00:11:31.029Z,88.10
2023-03-12T00:14:01.570Z,88.60
2023-03-12T00:16:30.658Z,89.10
2023-03-12T00:18:59.506Z,89.40
2023-03-12T00:21:28.627Z,89.70
2023-03-12T00:23:59.105Z,90.00
2023-03-12T00:26:28.199Z,90.00
2023-03-12T00:28:57.131Z,90.10
2023-03-12T00:31:28.502Z,90.20
2023-03-12T00:33:57.796Z,90.40
2023-03-12T00:36:29.068Z,90.70
2023-03-12T00:39:00.786Z,90.80
2023-03-12T00:41:31.475Z,90.80
2023-03-12T00:44:19.298Z,90.80
2023-03-12T00:46:48.568Z,90.90
2023-03-12T00:49:17.798Z,91.00
2023-03-12T00:51:46.828Z,91.10
2023-03-12T00:54:17.931Z,91.20
2023-03-12T00:57:05.757Z,91.20
2023-03-12T00:59:40.651Z,91.20
2023-03-12T01:02:10.604Z,91.30
2023-03-12T01:04:39.854Z,91.50
2023-03-12T01:07:09.232Z,91.50
2023-03-12T01:09:39.530Z,91.50
2023-03-12T01:12:09.020Z,91.60
2023-03-12T01:14:40.581Z,91.80
2023-03-12T01:17:10.751Z,92.00
2023-03-12T01:19:39.775Z,92.20
2023-03-12T01:22:08.758Z,92.40
2023-03-12T01:24:39.413Z,92.60
2023-03-12T01:27:08.348Z,92.70
2023-03-12T01:29:37.425Z,92.80
2023-03-12T01:32:06.895Z,93.00
2023-03-12T01:34:36.751Z,93.10
2023-03-12T01:37:05.668Z,93.20
2023-03-12T01:39:34.551Z,93.30
2023-03-12T01:42:05.279Z,93.40
2023-03-12T01:44:55.237Z,93.40
2023-03-12T01:47:25.072Z,93.50
2023-03-12T01:49:55.786Z,93.70
2023-03-12T01:52:28.546Z,93.90
2023-03-12T01:55:03.184Z,94.00
2023-03-12T01:57:38.507Z,94.20
2023-03-12T02:00:14.439Z,94.50
2023-03-12T02:02:46.217Z,94.80
2023-03-12T02:05:26.903Z,95.10
2023-03-12T02:07:56.321Z,95.30
2023-03-12T02:10:26.456Z,95.50
2023-03-12T02:12:56.923Z,95.70
2023-03-12T02:15:25.948Z,96.00
2023-03-12T02:17:55.433Z,96.20
2023-03-12T02:20:31.077Z,96.40
2023-03-12T02:23:07.905Z,96.70
2023-03-12T02:25:41.772Z,96.90
2023-03-12T02:28:14.483Z,97.20
2023-03-12T02:30:47.546Z,97.40
2023-03-12T02:33:17.485Z,97.60
2023-03-12T02:36:05.432Z,97.90
2023-03-12T02:38:43.235Z,98.10
2023-03-12T02:41:20.654Z,98.30
2023-03-12T02:43:53.574Z,98.50
2023-03-12T02:46:22.882Z,98.50
2023-03-12T02:48:52.119Z,98.60
2023-03-12T02:51:21.188Z,98.80
2023-03-12T02:53:54.986Z,98.90
2023-03-12T02:56:27.565Z,99.10
2023-03-12T02:58:57.046Z,99.40
2023-03-12T03:01:27.234Z,99.60
2023-03-12T03:03:56.824Z,99.90
2023-03-12T03:06:25.724Z,99.90
2023-03-12T03:08:56.277Z,99.90
2023-03-12T03:11:26.876Z,99.90
2023-03-12T03:13:57.933Z,99.90
2023-03-12T03:16:27.299Z,99.90
2023-03-12T03:18:56.188Z,99.90
2023-03-12T03:21:25.201Z,99.90
2023-03-12T03:23:54.247Z,99.90
2023-03-12T03:26:25.853Z,99.90
2023-03-12T03:28:56.014Z,99.90
2023-03-12T03:31:25.326Z,99.90
2023-03-12T03:33:54.378Z,99.90
2023-03-12T03:36:25.854Z,99.90
2023-03-12T03:39:05.817Z,99.90
2023-03-12T03:41:36.399Z,99.90
2023-03-12T03:44:05.660Z,99.90
2023-03-12T03:46:36.752Z,99.90
2023-03-12T03:49:08.793Z,99.90
2023-03-12T03:51:42.220Z,99.90
2023-03-12T03:54:13.167Z,99.90
2023-03-12T03:56:44.755Z,99.90
2023-03-12T03:59:14.043Z,99.90
2023-03-12T04:01:44.404Z,99.90
2023-03-12T04:04:13.897Z,99.90
2023-03-12T04:06:42.913Z,99.90
2023-03-12T04:09:12.191Z,99.90
2023-03-12T04:11:44.060Z,99.90
2023-03-12T04:14:15.003Z,99.90
2023-03-12T04:16:50.945Z,99.90
2023-03-12T04:19:19.961Z,99.90
2023-03-12T04:21:49.083Z,99.90
2023-03-12T04:24:18.792Z,99.90
2023-03-12T04:26:49.240Z,99.90
2023-03-12T04:29:22.038Z,99.90
2023-03-12T04:31:54.887Z,99.90
2023-03-12T04:34:24.128Z,99.90
2023-03-12T04:36:54.917Z,99.90
2023-03-12T04:39:24.462Z,99.90
2023-03-12T04:41:56.179Z,99.90
2023-03-12T04:44:30.423Z,99.90
2023-03-12T04:47:17.678Z,99.90
2023-03-12T04:49:47.664Z,99.90
2023-03-12T04:52:34.951Z,99.90
2023-03-12T04:55:04.270Z,99.90
2023-03-12T04:57:53.019Z,99.90
2023-03-12T05:00:22.444Z,99.90
2023-03-12T05:02:51.525Z,99.90
2023-03-12T05:05:20.410Z,99.90
2023-03-12T05:07:49.373Z,99.90
2023-03-12T05:10:18.698Z,99.90
2023-03-12T05:12:47.632Z,99.90
2023-03-12T05:15:18.894Z,99.90
2023-03-12T05:17:48.258Z,99.90
2023-03-12T05:20:18.238Z,99.90
2023-03-12T05:22:49.151Z,99.90
2023-03-12T05:25:18.878Z,99.90
2023-03-12T05:27:47.870Z,99.90
2023-03-12T05:30:19.819Z,99.90
2023-03-12T05:32:49.245Z,99.90
2023-03-12T05:35:18.535Z,99.90
2023-03-12T05:37:48.357Z,99.90
2023-03-12T05:40:17.669Z,99.90
2023-03-12T05:42:47.308Z,99.90
2023-03-12T05:45:16.332Z,99.90
2023-03-12T05:47:50.676Z,99.90
2023-03-12T05:50:20.493Z,99.90
2023-03-12T05:52:49.484Z,99.90
2023-03-12T05:55:18.650Z,99.90
2023-03-12T05:57:47.536Z,99.90
2023-03-12T06:00:18.031Z,99.90
2023-03-12T06:02:56.669Z,99.90
2023-03-12T06:05:25.991Z,99.90
2023-03-12T06:07:55.022Z,99.90
2023-03-12T06:10:23.884Z,99.90
2023-03-12T06:12:52.852Z,99.90
2023-03-12T06:15:21.790Z,99.90
2023-03-12T06:17:50.882Z,99.90
2023-03-12T06:20:21.617Z,99.90
2023-03-12T06:23:09.340Z,99.90
2023-03-12T06:25:38.417Z,99.90
2023-03-12T06:28:07.351Z,99.90
2023-03-12T06:30:36.328Z,99.90
2023-03-12T06:33:07.394Z,99.90
2023-03-12T06:35:38.024Z,99.90
2023-03-12T06:38:26.021Z,99.90
2023-03-12T06:40:59.465Z,99.90
2023-03-12T06:43:30.443Z,99.90
2023-03-12T06:46:00.873Z,99.90
2023-03-12T06:48:33.628Z,99.90
2023-03-12T06:51:04.329Z,99.90
2023-03-12T06:53:33.855Z,99.90
2023-03-12T06:56:02.935Z,99.90
2023-03-12T06:58:32.617Z,99.90
2023-03-12T07:01:01.847Z,99.90
2023-03-12T07:03:30.699Z,99.90
2023-03-12T07:05:59.953Z,99.90
2023-03-12T07:08:31.381Z,99.90
2023-03-12T07:11:02.233Z,99.90
2023-03-12T07:13:31.431Z,99.90
2023-03-12T07:16:06.004Z,99.90
2023-03-12T07:18:35.705Z,99.90
2023-03-12T07:21:04.816Z,99.90
2023-03-12T07:23:35.046Z,99.90
2023-03-12T07:26:06.184Z,99.90
2023-03-12T07:28:35.566Z,99.90
2023-03-12T07:31:05.621Z,99.90
2023-03-12T07:33:35.098Z,99.90
2023-03-12T07:36:04.786Z,99.90
2023-03-12T07:38:35.329Z,99.90
2023-03-12T07:41:04.382Z,99.90
2023-03-12T07:43:33.368Z,99.90
2023-03-12T07:46:02.420Z,99.90
2023-03-12T07:48:31.454Z,99.90
2023-03-12T07:51:00.425Z,99.90
2023-03-12T07:53:29.494Z,99.90
2023-03-12T07:56:00.172Z,99.90
2023-03-12T07:58:37.774Z,99.90
2023-03-12T08:01:09.704Z,99.90
2023-03-12T08:03:39.284Z,99.90
2023-03-12T08:06:08.501Z,99.90
2023-03-12T08:08:38.581Z,99.90
2023-03-12T08:11:10.043Z,99.90
2023-03-12T08:13:38.958Z,99.90
2023-03-12T08:16:09.510Z,99.90
2023-03-12T08:18:38.785Z,99.90
2023-03-12T08:21:07.971Z,99.90
2023-03-12T08:23:37.023Z,99.90
2023-03-12T08:26:06.183Z,99.90
2023-03-12T08:28:38.153Z,99.90
2023-03-12T08:31:07.695Z,99.90
2023-03-12T08:33:36.669Z,99.90
2023-03-12T08:36:06.073Z,99.90
2023-03-12T08:38:35.163Z,99.90
2023-03-12T08:41:04.151Z,99.90
2023-03-12T08:43:33.094Z,99.90
2023-03-12T08:46:04.819Z,99.90
2023-03-12T08:48:39.258Z,99.90
2023-03-12T08:51:10.163Z,99.90
2023-03-12T08:53:40.834Z,99.90
2023-03-12T08:56:10.220Z,99.90
2023-03-12T08:58:39.714Z,99.90
2023-03-12T09:01:14.127Z,99.90
2023-03-12T09:03:43.953Z,99.90
2023-03-12T09:06:17.101Z,99.90
2023-03-12T09:08:47.234Z,99.90
2023-03-12T09:11:17.043Z,99.90
2023-03-12T09:14:14.939Z,99.90
2023-03-12T09:16:36.793Z,99.90
2023-03-12T09:19:06.528Z,99.90
2023-03-12T09:21:35.623Z,99.90
2023-03-12T09:24:04.625Z,99.90
2023-03-12T09:26:33.557Z,99.90
2023-03-12T09:29:02.538Z,99.90
2023-03-12T09:31:31.406Z,99.90
2023-03-12T09:34:01.879Z,99.90
2023-03-12T09:36:30.788Z,99.90
2023-03-12T09:38:59.669Z,99.90
2023-03-12T09:41:31.892Z,99.90
2023-03-12T09:44:05.060Z,99.90
2023-03-12T09:46:40.331Z,99.90
2023-03-12T09:49:18.555Z,99.90
2023-03-12T09:51:52.697Z,99.90
2023-03-12T09:54:29.729Z,99.90
2023-03-12T09:57:02.058Z,99.90
2023-03-12T09:59:31.327Z,99.90
2023-03-12T10:02:02.989Z,99.90
2023-03-12T10:04:58.074Z,99.90
2023-03-12T10:07:34.024Z,99.90
2023-03-12T10:10:17.390Z,99.90
2023-03-12T10:13:00.636Z,99.90
2023-03-12T10:15:39.337Z,99.90
2023-03-12T10:18:20.101Z,99.90
2023-03-12T10:20:58.078Z,99.90
2023-03-12T10:23:43.270Z,99.90
2023-03-12T10:26:17.578Z,99.90
2023-03-12T10:28:50.583Z,99.90
2023-03-12T10:31:24.045Z,99.90
2023-03-12T10:33:57.447Z,99.90
2023-03-12T10:36:35.732Z,99.90
2023-03-12T10:39:05.500Z,99.90
2023-03-12T10:41:36.217Z,99.90
2023-03-12T10:44:09.616Z,99.90
2023-03-12T10:46:52.058Z,99.90
2023-03-12T10:49:33.014Z,99.90
2023-03-12T10:52:06.556Z,99.90
2023-03-12T10:54:38.104Z,99.90
2023-03-12T10:57:07.889Z,99.90
2023-03-12T10:59:38.904Z,99.90
2023-03-12T11:02:32.249Z,99.90
2023-03-12T11:05:02.631Z,99.90
2023-03-12T11:07:35.985Z,99.90
2023-03-12T11:10:19.951Z,99.90
2023-03-12T11:13:01.960Z,99.90
2023-03-12T11:15:40.158Z,99.90
2023-03-12T11:18:32.284Z,99.90
2023-03-12T11:21:16.652Z,99.90
2023-03-12T11:24:07.497Z,99.90
2023-03-12T11:26:41.494Z,99.90
2023-03-12T11:29:36.422Z,99.90
2023-03-12T11:32:14.759Z,99.90
2023-03-12T11:34:48.557Z,99.90
2023-03-12T11:37:50.668Z,99.90
2023-03-12T11:40:32.760Z,99.90
2023-03-12T11:43:20.663Z,99.90
2023-03-12T11:46:12.052Z,99.90
2023-03-12T11:48:53.539Z,99.90
2023-03-12T11:51:32.420Z,99.90
2023-03-12T11:54:29.012Z,99.90
2023-03-12T11:57:03.174Z,99.90
2023-03-12T11:59:52.193Z,99.90
2023-03-12T12:02:38.434Z,99.90
2023-03-12T12:05:42.930Z,99.90
2023-03-12T12:08:25.448Z,99.90
2023-03-12T12:11:03.846Z,99.90
2023-03-12T12:13:41.513Z,99.90
2023-03-12T12:16:29.199Z,99.90
2023-03-12T12:19:11.967Z,99.90
2023-03-12T12:21:54.029Z,99.90
2023-03-12T12:24:39.299Z,99.90
2023-03-12T12:27:19.304Z,99.90
2023-03-12T12:30:06.348Z,99.90
2023-03-12T12:32:57.496Z,99.90
2023-03-12T12:35:33.160Z,99.90
2023-03-12T12:38:05.621Z,99.90
2023-03-12T12:40:39.447Z,99.90
2023-03-12T12:43:24.425Z,99.90
2023-03-12T12:45:57.173Z,99.90
2023-03-12T12:48:31.022Z,99.90
2023-03-12T12:51:02.424Z,99.90
2023-03-12T12:53:40.690Z,99.90
2023-03-12T12:56:16.857Z,99.90
2023-03-12T12:59:15.800Z,99.90
2023-03-12T13:01:46.546Z,99.90
2023-03-12T13:04:21.934Z,99.90
2023-03-12T13:07:04.014Z,99.90
2023-03-12T13:09:43.619Z,99.90
2023-03-12T13:12:21.462Z,99.90
2023-03-12T13:14:51.664Z,99.90
2023-03-12T13:17:34.716Z,99.90
2023-03-12T13:20:15.751Z,99.90
2023-03-12T13:23:01.548Z,99.90
2023-03-12T13:25:46.475Z,99.90
2023-03-12T13:28:42.067Z,99.90
2023-03-12T13:31:37.358Z,99.90
2023-03-12T13:34:46.283Z,99.90
2023-03-12T13:37:56.655Z,99.90
2023-03-12T13:40:41.027Z,99.90
2023-03-12T13:43:14.025Z,99.90
2023-03-12T13:45:56.626Z,99.90
2023-03-12T13:48:26.719Z,99.90
2023-03-12T13:51:00.382Z,99.90
2023-03-12T13:53:34.769Z,99.90
2023-03-12T13:56:09.452Z,99.90
2023-03-12T13:58:45.634Z,99.90
2023-03-12T14:01:20.013Z,99.90
2023-03-12T14:03:52.168Z,99.90
2023-03-12T14:06:24.333Z,99.90
2023-03-12T14:09:11.043Z,99.90
2023-03-12T14:11:57.837Z,99.90
2023-03-12T14:15:04.608Z,99.90
2023-03-12T14:17:36.059Z,99.90
2023-03-12T14:20:07.589Z,99.90
2023-03-12T14:22:40.251Z,99.90
2023-03-12T14:25:15.922Z,99.90
2023-03-12T14:28:05.084Z,99.90
2023-03-12T14:30:44.304Z,99.90
2023-03-12T14:33:16.066Z,99.90
2023-03-12T14:35:50.777Z,99.90
2023-03-12T14:38:27.763Z,99.90
2023-03-12T14:41:02.155Z,99.90
2023-03-12T14:43:32.882Z,99.90
2023-03-12T14:46:03.878Z,99.90
2023-03-12T14:48:34.977Z,99.90
2023-03-12T14:51:05.901Z,99.90
2023-03-12T14:53:38.413Z,99.90
2023-03-12T14:56:13.497Z,99.90
2023-03-12T14:58:46.795Z,99.90
2023-03-12T15:01:19.291Z,99.90
2023-03-12T15:03:52.024Z,99.90
2023-03-12T15:06:26.326Z,99.90
2023-03-12T15:08:57.191Z,99.90
2023-03-12T15:11:29.011Z,99.90
2023-03-12T15:14:04.502Z,99.90
2023-03-12T15:16:34.211Z,99.90
2023-03-12T15:19:04.584Z,99.90
2023-03-12T15:21:35.084Z,99.90
2023-03-12T15:24:07.343Z,99.90
2023-03-12T15:26:38.852Z,99.90
2023-03-12T15:29:26.876Z,99.90
2023-03-12T15:31:58.153Z,99.90
2023-03-12T15:34:33.421Z,99.90
2023-03-12T15:37:04.895Z,99.90
2023-03-12T15:39:38.346Z,99.90
2023-03-12T15:42:11.564Z,99.90
2023-03-12T15:44:46.802Z,99.90
2023-03-12T15:47:18.579Z,99.90
2023-03-12T15:49:53.169Z,99.90
2023-03-12T15:52:31.727Z,99.90
2023-03-12T15:55:26.631Z,99.90
2023-03-12T15:57:57.439Z,99.90
2023-03-12T16:00:29.448Z,99.90
2023-03-12T16:03:00.206Z,99.90
2023-03-12T16:05:33.408Z,99.90
2023-03-12T16:08:04.068Z,99.90
2023-03-12T16:10:53.620Z,99.90
2023-03-12T16:13:26.748Z,99.90
2023-03-12T16:15:56.451Z,99.90
2023-03-12T16:18:25.865Z,99.90
2023-03-12T16:20:55.302Z,99.90
2023-03-12T16:23:24.289Z,99.90
2023-03-12T16:25:56.691Z,99.90
2023-03-12T16:28:27.254Z,99.90
2023-03-12T16:30:56.153Z,99.90
2023-03-12T16:33:26.274Z,99.90
2023-03-12T16:35:55.917Z,99.90
2023-03-12T16:38:26.113Z,99.90
2023-03-12T16:41:18.149Z,99.90
2023-03-12T16:43:49.957Z,99.90
2023-03-12T16:46:22.196Z,99.90
2023-03-12T16:48:54.146Z,99.90
2023-03-12T16:51:24.077Z,99.90
2023-03-12T16:54:07.375Z,99.90
2023-03-12T16:56:42.688Z,99.90
2023-03-12T16:59:21.537Z,99.90
2023-03-12T17:01:50.839Z,99.90
2023-03-12T17:04:19.999Z,99.90
2023-03-12T17:06:48.966Z,99.90
2023-03-12T17:09:17.940Z,99.90
2023-03-12T17:11:51.451Z,99.90
2023-03-12T17:14:23.499Z,99.90
2023-03-12T17:16:52.585Z,99.90
2023-03-12T17:19:21.505Z,99.90
2023-03-12T17:21:51.030Z,99.90
2023-03-12T17:24:20.024Z,99.90
2023-03-12T17:26:52.317Z,99.90
2023-03-12T17:29:21.649Z,99.90
2023-03-12T17:31:50.505Z,99.90
2023-03-12T17:34:19.507Z,99.90
2023-03-12T17:36:49.934Z,99.90
2023-03-12T17:39:18.985Z,99.90
2023-03-12T17:41:47.834Z,99.90
2023-03-12T17:44:18.839Z,99.90
2023-03-12T17:46:58.905Z,99.90
2023-03-12T17:49:28.867Z,99.90
2023-03-12T17:51:57.944Z,99.90
2023-03-12T17:54:26.874Z,99.90
2023-03-12T17:56:55.959Z,99.90
2023-03-12T17:59:27.438Z,99.90
2023-03-12T18:01:56.528Z,99.90
2023-03-12T18:04:25.709Z,99.90
2023-03-12T18:06:54.972Z,99.90
2023-03-12T18:09:23.970Z,99.90
2023-03-12T18:11:53.114Z,99.90
2023-03-12T18:14:22.280Z,99.90
2023-03-12T18:16:53.820Z,99.90
2023-03-12T18:19:24.344Z,99.90
2023-03-12T18:21:53.726Z,99.90
2023-03-12T18:24:22.567Z,99.90
2023-03-12T18:26:53.928Z,99.90
2023-03-12T18:29:23.160Z,99.90
2023-03-12T18:31:53.731Z,99.90
2023-03-12T18:34:23.774Z,99.90
2023-03-12T18:36:52.868Z,99.90
2023-03-12T18:39:22.179Z,99.90
2023-03-12T18:41:51.750Z,99.90
2023-03-12T18:44:20.910Z,99.90
2023-03-12T18:46:51.165Z,99.90
2023-03-12T18:49:21.874Z,99.90
2023-03-12T18:51:54.757Z,99.90
2023-03-12T18:54:42.008Z,99.90
2023-03-12T18:57:12.726Z,99.90
2023-03-12T18:59:45.443Z,99.90
2023-03-12T19:02:14.586Z,99.90
2023-03-12T19:04:45.965Z,99.90
2023-03-12T19:07:15.314Z,99.90
2023-03-12T19:09:44.743Z,99.90
2023-03-12T19:12:13.712Z,99.90
2023-03-12T19:14:42.892Z,99.90
2023-03-12T19:17:11.792Z,99.90
2023-03-12T19:19:40.763Z,99.90
2023-03-12T19:22:11.480Z,99.90
2023-03-12T19:24:44.161Z,99.90
2023-03-12T19:27:13.394Z,99.90
2023-03-12T19:29:42.520Z,99.90
2023-03-12T19:32:11.398Z,99.90
2023-03-12T19:34:40.601Z,99.90
2023-03-12T19:37:11.209Z,99.90
2023-03-12T19:39:40.810Z,99.90
2023-03-12T19:42:09.876Z,99.90
2023-03-12T19:44:44.696Z,99.90
2023-03-12T19:47:15.634Z,99.90
2023-03-12T19:49:47.576Z,99.90
2023-03-12T19:52:19.519Z,99.90
2023-03-12T19:55:01.573Z,99.90
2023-03-12T19:57:32.629Z,99.90
2023-03-12T20:00:01.574Z,99.90
2023-03-12T20:02:33.283Z,99.90
2023-03-12T20:05:02.812Z,99.90
2023-03-12T20:07:33.298Z,99.90
2023-03-12T20:10:02.294Z,99.90
2023-03-12T20:12:31.204Z,99.90
2023-03-12T20:15:00.195Z,99.90
2023-03-12T20:17:29.431Z,99.90
2023-03-12T20:19:58.760Z,99.90
2023-03-12T20:22:28.102Z,99.90
2023-03-12T20:24:58.603Z,99.90
2023-03-12T20:27:27.868Z,99.90
2023-03-12T20:29:56.688Z,99.90
2023-03-12T20:32:26.753Z,99.90
2023-03-12T20:34:55.973Z,99.90
2023-03-12T20:37:25.339Z,99.90
2023-03-12T20:40:00.473Z,99.90
2023-03-12T20:42:29.970Z,99.90
2023-03-12T20:44:58.866Z,99.90
2023-03-12T20:47:35.325Z,99.90
2023-03-12T20:50:04.955Z,99.90
2023-03-12T20:52:33.988Z,99.90
2023-03-12T20:55:08.730Z,99.90
2023-03-12T20:57:38.367Z,99.90
2023-03-12T21:00:08.608Z,99.90
2023-03-12T21:02:37.565Z,99.90
2023-03-12T21:05:07.379Z,99.90
2023-03-12T21:07:36.171Z,99.90
2023-03-12T21:10:07.361Z,99.90
2023-03-12T21:12:36.458Z,99.90
2023-03-12T21:15:07.561Z,99.90
2023-03-12T21:17:38.228Z,99.90
2023-03-12T21:20:19.483Z,99.90
2023-03-12T21:22:48.709Z,99.90
2023-03-12T21:25:19.258Z,99.90
2023-03-12T21:27:51.476Z,99.90
2023-03-12T21:30:21.016Z,99.90
2023-03-12T21:32:49.987Z,99.90
2023-03-12T21:35:26.401Z,99.90
2023-03-12T21:38:02.756Z,99.90
2023-03-12T21:40:33.588Z,99.90
2023-03-12T21:43:02.628Z,99.90
2023-03-12T21:45:31.773Z,99.90
2023-03-12T21:48:00.776Z,99.90
2023-03-12T21:50:29.732Z,99.90
2023-03-12T21:52:58.729Z,99.90
2023-03-12T21:55:27.665Z,99.90
2023-03-12T21:57:57.904Z,99.90
2023-03-12T22:00:27.148Z,99.90
2023-03-12T22:02:56.018Z,99.90
2023-03-12T22:05:24.929Z,99.90
2023-03-12T22:07:54.075Z,99.90
2023-03-12T22:10:22.946Z,99.90
2023-03-12T22:12:51.863Z,99.90
2023-03-12T22:15:27.831Z,99.90
2023-03-12T22:18:17.703Z,99.90
2023-03-12T22:20:53.113Z,99.90
2023-03-12T22:23:23.450Z,99.90
2023-03-12T22:25:52.966Z,99.80
2023-03-12T22:28:23.773Z,99.90
2023-03-12T22:31:00.413Z,99.90
2023-03-12T22:33:33.966Z,99.80
2023-03-12T22:36:21.563Z,99.50
2023-03-12T22:38:50.822Z,99.10
2023-03-12T22:41:21.293Z,98.80
2023-03-12T22:43:51.569Z,98.80
2023-03-12T22:46:34.730Z,98.70
2023-03-12T22:49:05.338Z,98.80
2023-03-12T22:51:35.232Z,98.70
2023-03-12T22:54:04.700Z,98.50
2023-03-12T22:56:33.687Z,98.40
2023-03-12T22:59:02.577Z,98.30
2023-03-12T23:01:32.923Z,98.20
2023-03-12T23:04:04.229Z,97.90
2023-03-12T23:06:33.561Z,97.80
2023-03-12T23:09:02.512Z,97.80
2023-03-12T23:11:31.567Z,97.60
2023-03-12T23:14:00.559Z,97.50
2023-03-12T23:16:29.720Z,97.60
2023-03-12T23:19:00.826Z,97.40
2023-03-12T23:21:30.287Z,97.40
2023-03-12T23:24:01.878Z,97.20
2023-03-12T23:26:31.090Z,97.10
2023-03-12T23:29:00.946Z,97.10
2023-03-12T23:31:31.236Z,97.00
2023-03-12T23:34:01.745Z,97.00
2023-03-12T23:36:30.735Z,97.00
2023-03-12T23:38:59.644Z,96.80
2023-03-12T23:41:30.643Z,96.70
2023-03-12T23:44:00.341Z,96.70
2023-03-12T23:46:29.815Z,96.40
2023-03-12T23:49:00.671Z,96.40
2023-03-12T23:51:31.019Z,96.40
2023-03-12T23:54:01.437Z,96.30
2023-03-12T23:56:34.972Z,96.30
2023-03-12T23:59:04.882Z,96.30
